New Britain, Connecticut
Current Conditions -  °F | °C
As of 8:53 PM on Thursday 20 Nov 2014 (Local Time) from KHFD Reporting Station
Clear Clear  
Wind Chill: 30°   Ceiling: Unl
Heat Index: 36°   Visibility: 10mi
Dew Point: 11°   Wind: 8mph
Humidity: 36%   Direction: 300°WNW
Pressure: 29.93"   Gusts: 18mph
Location:  41.67°N, 72.78°W
Report Text: KHFD 210153Z AUTO 30007G16KT 260V330 10SM CLR 02/M12 A2993 RMK AO2 SLP133 T00221117
Loading
Personal Weather Stations






























Interactive Weather Map New forecast layout! Learn more

10-Day Weather Forecast

Advertisements
Track Severe Weather on mobile